sensor_id;sensor_type;location;lat;lon;timestamp;P1;durP1;ratioP1;P2;durP2;ratioP2
53521;SDS011;39398;48.382;9.802;2023-04-24T00:02:53;1.80;;;1.52;;
53521;SDS011;39398;48.382;9.802;2023-04-24T00:07:55;2.22;;;1.48;;
53521;SDS011;39398;48.382;9.802;2023-04-24T00:12:58;1.40;;;1.30;;
53521;SDS011;39398;48.382;9.802;2023-04-24T00:18:00;1.50;;;1.40;;
53521;SDS011;39398;48.382;9.802;2023-04-24T00:23:04;2.45;;;1.50;;
53521;SDS011;39398;48.382;9.802;2023-04-24T00:28:10;2.40;;;1.90;;
53521;SDS011;39398;48.382;9.802;2023-04-24T00:33:11;3.20;;;1.70;;
53521;SDS011;39398;48.382;9.802;2023-04-24T00:38:16;3.88;;;1.73;;
53521;SDS011;39398;48.382;9.802;2023-04-24T00:43:19;2.50;;;1.70;;
53521;SDS011;39398;48.382;9.802;2023-04-24T00:59:51;3.95;;;1.92;;
53521;SDS011;39398;48.382;9.802;2023-04-24T01:04:53;2.13;;;1.90;;
53521;SDS011;39398;48.382;9.802;2023-04-24T01:09:55;2.13;;;1.92;;
53521;SDS011;39398;48.382;9.802;2023-04-24T01:14:59;4.35;;;2.20;;
53521;SDS011;39398;48.382;9.802;2023-04-24T01:20:00;3.25;;;2.75;;
53521;SDS011;39398;48.382;9.802;2023-04-24T01:30:39;5.18;;;2.63;;
53521;SDS011;39398;48.382;9.802;2023-04-24T01:35:43;5.38;;;2.28;;
53521;SDS011;39398;48.382;9.802;2023-04-24T01:40:52;4.57;;;1.90;;
53521;SDS011;39398;48.382;9.802;2023-04-24T01:45:54;3.70;;;2.10;;
53521;SDS011;39398;48.382;9.802;2023-04-24T01:50:56;4.13;;;2.42;;
53521;SDS011;39398;48.382;9.802;2023-04-24T01:55:59;3.75;;;2.45;;
53521;SDS011;39398;48.382;9.802;2023-04-24T02:01:01;3.53;;;2.38;;
53521;SDS011;39398;48.382;9.802;2023-04-24T02:06:03;2.90;;;2.00;;
53521;SDS011;39398;48.382;9.802;2023-04-24T02:11:07;4.63;;;2.50;;
53521;SDS011;39398;48.382;9.802;2023-04-24T02:16:10;3.67;;;2.38;;
53521;SDS011;39398;48.382;9.802;2023-04-24T02:21:15;3.65;;;2.30;;
53521;SDS011;39398;48.382;9.802;2023-04-24T02:26:17;3.22;;;1.85;;
53521;SDS011;39398;48.382;9.802;2023-04-24T02:31:19;3.92;;;1.90;;
53521;SDS011;39398;48.382;9.802;2023-04-24T02:36:21;4.18;;;1.85;;
53521;SDS011;39398;48.382;9.802;2023-04-24T02:41:25;6.13;;;2.00;;
53521;SDS011;39398;48.382;9.802;2023-04-24T02:46:26;2.60;;;1.30;;
53521;SDS011;39398;48.382;9.802;2023-04-24T02:51:28;1.52;;;1.42;;
53521;SDS011;39398;48.382;9.802;2023-04-24T02:56:31;2.10;;;1.60;;
53521;SDS011;39398;48.382;9.802;2023-04-24T03:01:33;4.07;;;1.73;;
53521;SDS011;39398;48.382;9.802;2023-04-24T03:06:36;2.13;;;1.67;;
53521;SDS011;39398;48.382;9.802;2023-04-24T03:11:42;1.98;;;1.60;;
53521;SDS011;39398;48.382;9.802;2023-04-24T03:16:43;1.73;;;1.55;;
53521;SDS011;39398;48.382;9.802;2023-04-24T03:21:45;2.65;;;1.50;;
53521;SDS011;39398;48.382;9.802;2023-04-24T03:26:48;2.25;;;1.90;;
53521;SDS011;39398;48.382;9.802;2023-04-24T03:31:50;3.33;;;2.08;;
53521;SDS011;39398;48.382;9.802;2023-04-24T03:36:51;4.80;;;2.10;;
53521;SDS011;39398;48.382;9.802;2023-04-24T03:41:54;3.78;;;2.38;;
53521;SDS011;39398;48.382;9.802;2023-04-24T03:46:57;3.97;;;2.63;;
53521;SDS011;39398;48.382;9.802;2023-04-24T03:51:59;3.47;;;2.42;;
53521;SDS011;39398;48.382;9.802;2023-04-24T03:57:04;2.78;;;2.42;;
53521;SDS011;39398;48.382;9.802;2023-04-24T04:02:06;3.40;;;2.45;;
53521;SDS011;39398;48.382;9.802;2023-04-24T04:07:07;2.75;;;2.50;;
53521;SDS011;39398;48.382;9.802;2023-04-24T04:12:12;5.32;;;3.00;;
53521;SDS011;39398;48.382;9.802;2023-04-24T04:17:21;3.45;;;2.97;;
53521;SDS011;39398;48.382;9.802;2023-04-24T04:22:23;3.33;;;3.03;;
53521;SDS011;39398;48.382;9.802;2023-04-24T04:27:28;6.82;;;3.80;;
53521;SDS011;39398;48.382;9.802;2023-04-24T04:37:34;5.38;;;3.95;;
53521;SDS011;39398;48.382;9.802;2023-04-24T04:42:37;5.53;;;3.47;;
53521;SDS011;39398;48.382;9.802;2023-04-24T04:47:39;4.95;;;3.05;;
53521;SDS011;39398;48.382;9.802;2023-04-24T04:52:41;10.57;;;6.38;;
53521;SDS011;39398;48.382;9.802;2023-04-24T04:57:44;4.57;;;3.22;;
53521;SDS011;39398;48.382;9.802;2023-04-24T05:02:46;3.55;;;3.10;;
53521;SDS011;39398;48.382;9.802;2023-04-24T05:07:47;3.60;;;3.08;;
53521;SDS011;39398;48.382;9.802;2023-04-24T05:12:50;3.60;;;2.80;;
53521;SDS011;39398;48.382;9.802;2023-04-24T05:17:55;3.35;;;2.72;;
53521;SDS011;39398;48.382;9.802;2023-04-24T05:23:06;4.80;;;2.42;;
53521;SDS011;39398;48.382;9.802;2023-04-24T05:28:12;2.33;;;2.10;;
53521;SDS011;39398;48.382;9.802;2023-04-24T05:33:13;2.60;;;2.00;;
53521;SDS011;39398;48.382;9.802;2023-04-24T05:38:15;2.80;;;2.33;;
53521;SDS011;39398;48.382;9.802;2023-04-24T05:43:18;1.50;;;1.40;;
53521;SDS011;39398;48.382;9.802;2023-04-24T05:48:20;1.70;;;1.60;;
53521;SDS011;39398;48.382;9.802;2023-04-24T05:53:22;4.00;;;1.70;;
53521;SDS011;39398;48.382;9.802;2023-04-24T05:58:29;1.67;;;1.40;;
53521;SDS011;39398;48.382;9.802;2023-04-24T06:03:31;1.80;;;1.48;;
53521;SDS011;39398;48.382;9.802;2023-04-24T06:08:33;2.42;;;1.30;;
53521;SDS011;39398;48.382;9.802;2023-04-24T06:13:36;2.22;;;1.20;;
53521;SDS011;39398;48.382;9.802;2023-04-24T06:18:38;2.92;;;1.30;;
53521;SDS011;39398;48.382;9.802;2023-04-24T06:23:40;1.20;;;1.08;;
53521;SDS011;39398;48.382;9.802;2023-04-24T06:28:43;2.35;;;1.35;;
53521;SDS011;39398;48.382;9.802;2023-04-24T06:33:44;1.75;;;1.17;;
53521;SDS011;39398;48.382;9.802;2023-04-24T06:38:53;1.40;;;1.30;;
53521;SDS011;39398;48.382;9.802;2023-04-24T06:43:56;2.05;;;1.48;;
53521;SDS011;39398;48.382;9.802;2023-04-24T06:48:58;1.65;;;1.55;;
53521;SDS011;39398;48.382;9.802;2023-04-24T06:54:02;4.88;;;2.30;;
53521;SDS011;39398;48.382;9.802;2023-04-24T06:59:07;2.42;;;1.98;;
53521;SDS011;39398;48.382;9.802;2023-04-24T07:04:09;5.70;;;3.95;;
53521;SDS011;39398;48.382;9.802;2023-04-24T07:09:11;1.60;;;1.35;;
53521;SDS011;39398;48.382;9.802;2023-04-24T07:14:23;2.45;;;1.75;;
53521;SDS011;39398;48.382;9.802;2023-04-24T07:19:25;1.30;;;1.20;;
53521;SDS011;39398;48.382;9.802;2023-04-24T07:24:26;3.15;;;2.00;;
53521;SDS011;39398;48.382;9.802;2023-04-24T07:29:33;5.45;;;2.17;;
53521;SDS011;39398;48.382;9.802;2023-04-24T07:34:34;7.60;;;3.30;;
53521;SDS011;39398;48.382;9.802;2023-04-24T07:39:36;2.15;;;1.42;;
53521;SDS011;39398;48.382;9.802;2023-04-24T07:44:39;2.88;;;1.80;;
53521;SDS011;39398;48.382;9.802;2023-04-24T07:49:41;3.10;;;2.05;;
53521;SDS011;39398;48.382;9.802;2023-04-24T07:54:46;3.60;;;2.20;;
53521;SDS011;39398;48.382;9.802;2023-04-24T08:05:09;2.42;;;1.90;;
53521;SDS011;39398;48.382;9.802;2023-04-24T08:10:11;2.35;;;1.45;;
53521;SDS011;39398;48.382;9.802;2023-04-24T08:15:14;1.70;;;1.60;;
53521;SDS011;39398;48.382;9.802;2023-04-24T08:20:16;2.72;;;1.52;;
53521;SDS011;39398;48.382;9.802;2023-04-24T08:25:17;2.03;;;1.83;;
53521;SDS011;39398;48.382;9.802;2023-04-24T08:30:22;2.47;;;1.70;;
53521;SDS011;39398;48.382;9.802;2023-04-24T08:35:26;2.10;;;1.30;;
53521;SDS011;39398;48.382;9.802;2023-04-24T08:40:28;1.20;;;1.10;;
53521;SDS011;39398;48.382;9.802;2023-04-24T08:45:33;2.45;;;1.40;;
53521;SDS011;39398;48.382;9.802;2023-04-24T08:50:35;3.03;;;1.30;;
53521;SDS011;39398;48.382;9.802;2023-04-24T08:55:43;6.07;;;1.92;;
53521;SDS011;39398;48.382;9.802;2023-04-24T09:06:51;1.85;;;1.27;;
53521;SDS011;39398;48.382;9.802;2023-04-24T09:11:58;3.00;;;1.50;;
53521;SDS011;39398;48.382;9.802;2023-04-24T09:17:05;3.07;;;1.70;;
53521;SDS011;39398;48.382;9.802;2023-04-24T09:22:09;2.10;;;1.17;;
53521;SDS011;39398;48.382;9.802;2023-04-24T09:27:12;1.58;;;1.20;;
53521;SDS011;39398;48.382;9.802;2023-04-24T09:32:20;2.45;;;1.42;;
53521;SDS011;39398;48.382;9.802;2023-04-24T09:37:29;1.65;;;1.45;;
53521;SDS011;39398;48.382;9.802;2023-04-24T09:42:36;0.93;;;0.93;;
53521;SDS011;39398;48.382;9.802;2023-04-24T09:47:38;1.10;;;1.00;;
53521;SDS011;39398;48.382;9.802;2023-04-24T09:58:47;2.03;;;1.30;;
53521;SDS011;39398;48.382;9.802;2023-04-24T10:03:49;3.20;;;1.60;;
53521;SDS011;39398;48.382;9.802;2023-04-24T10:08:50;1.85;;;1.20;;
53521;SDS011;39398;48.382;9.802;2023-04-24T10:13:56;1.80;;;1.17;;
53521;SDS011;39398;48.382;9.802;2023-04-24T10:18:58;1.10;;;1.00;;
53521;SDS011;39398;48.382;9.802;2023-04-24T10:24:00;1.92;;;1.00;;
53521;SDS011;39398;48.382;9.802;2023-04-24T10:29:03;2.15;;;1.35;;
53521;SDS011;39398;48.382;9.802;2023-04-24T10:34:07;2.55;;;1.23;;
53521;SDS011;39398;48.382;9.802;2023-04-24T10:39:11;3.38;;;1.05;;
53521;SDS011;39398;48.382;9.802;2023-04-24T10:44:18;1.33;;;1.23;;
53521;SDS011;39398;48.382;9.802;2023-04-24T10:49:27;1.10;;;1.10;;
53521;SDS011;39398;48.382;9.802;2023-04-24T10:54:33;1.70;;;1.27;;
53521;SDS011;39398;48.382;9.802;2023-04-24T10:59:40;1.85;;;1.35;;
53521;SDS011;39398;48.382;9.802;2023-04-24T11:04:41;1.38;;;1.27;;
53521;SDS011;39398;48.382;9.802;2023-04-24T11:09:46;1.45;;;1.35;;
53521;SDS011;39398;48.382;9.802;2023-04-24T11:15:01;2.85;;;1.50;;
53521;SDS011;39398;48.382;9.802;2023-04-24T11:20:04;1.80;;;1.40;;
53521;SDS011;39398;48.382;9.802;2023-04-24T11:25:28;1.30;;;1.20;;
53521;SDS011;39398;48.382;9.802;2023-04-24T11:30:33;2.63;;;1.60;;
53521;SDS011;39398;48.382;9.802;2023-04-24T11:35:35;5.80;;;1.50;;
53521;SDS011;39398;48.382;9.802;2023-04-24T11:40:42;4.47;;;1.70;;
53521;SDS011;39398;48.382;9.802;2023-04-24T11:45:48;5.05;;;1.30;;
53521;SDS011;39398;48.382;9.802;2023-04-24T11:50:50;1.27;;;1.15;;
53521;SDS011;39398;48.382;9.802;2023-04-24T11:55:52;2.25;;;1.50;;
53521;SDS011;39398;48.382;9.802;2023-04-24T12:00:57;1.70;;;1.17;;
53521;SDS011;39398;48.382;9.802;2023-04-24T12:06:04;2.42;;;1.40;;
53521;SDS011;39398;48.382;9.802;2023-04-24T12:11:07;1.80;;;1.10;;
53521;SDS011;39398;48.382;9.802;2023-04-24T12:16:11;2.15;;;1.20;;
53521;SDS011;39398;48.382;9.802;2023-04-24T12:21:20;1.23;;;1.10;;
53521;SDS011;39398;48.382;9.802;2023-04-24T12:26:23;0.82;;;0.82;;
53521;SDS011;39398;48.382;9.802;2023-04-24T12:31:26;0.90;;;0.90;;
53521;SDS011;39398;48.382;9.802;2023-04-24T12:36:31;0.85;;;0.80;;
53521;SDS011;39398;48.382;9.802;2023-04-24T12:41:34;0.95;;;0.93;;
53521;SDS011;39398;48.382;9.802;2023-04-24T12:46:37;1.17;;;1.08;;
53521;SDS011;39398;48.382;9.802;2023-04-24T12:51:41;1.35;;;0.80;;
53521;SDS011;39398;48.382;9.802;2023-04-24T12:56:43;1.67;;;0.80;;
53521;SDS011;39398;48.382;9.802;2023-04-24T13:01:46;1.40;;;1.30;;
53521;SDS011;39398;48.382;9.802;2023-04-24T13:06:48;1.20;;;1.10;;
53521;SDS011;39398;48.382;9.802;2023-04-24T13:11:50;1.00;;;0.80;;
53521;SDS011;39398;48.382;9.802;2023-04-24T13:16:53;1.27;;;0.80;;
53521;SDS011;39398;48.382;9.802;2023-04-24T13:22:00;0.88;;;0.80;;
53521;SDS011;39398;48.382;9.802;2023-04-24T13:27:02;1.50;;;0.93;;
53521;SDS011;39398;48.382;9.802;2023-04-24T13:32:08;1.65;;;1.13;;
53521;SDS011;39398;48.382;9.802;2023-04-24T13:37:10;2.05;;;1.33;;
53521;SDS011;39398;48.382;9.802;2023-04-24T13:42:14;0.82;;;0.82;;
53521;SDS011;39398;48.382;9.802;2023-04-24T13:47:17;1.83;;;0.90;;
53521;SDS011;39398;48.382;9.802;2023-04-24T13:52:19;3.25;;;1.15;;
53521;SDS011;39398;48.382;9.802;2023-04-24T13:57:22;1.42;;;1.13;;
53521;SDS011;39398;48.382;9.802;2023-04-24T14:02:25;1.00;;;1.00;;
53521;SDS011;39398;48.382;9.802;2023-04-24T14:07:27;2.80;;;1.10;;
53521;SDS011;39398;48.382;9.802;2023-04-24T14:12:29;1.13;;;1.10;;
53521;SDS011;39398;48.382;9.802;2023-04-24T14:17:34;1.30;;;1.20;;
53521;SDS011;39398;48.382;9.802;2023-04-24T14:22:36;4.28;;;1.25;;
53521;SDS011;39398;48.382;9.802;2023-04-24T14:27:38;1.25;;;0.90;;
53521;SDS011;39398;48.382;9.802;2023-04-24T14:32:43;1.70;;;1.08;;
53521;SDS011;39398;48.382;9.802;2023-04-24T14:37:45;2.28;;;1.02;;
53521;SDS011;39398;48.382;9.802;2023-04-24T14:42:46;1.85;;;0.90;;
53521;SDS011;39398;48.382;9.802;2023-04-24T14:47:49;1.23;;;1.10;;
53521;SDS011;39398;48.382;9.802;2023-04-24T14:52:53;1.10;;;1.00;;
53521;SDS011;39398;48.382;9.802;2023-04-24T14:57:55;1.70;;;0.98;;
53521;SDS011;39398;48.382;9.802;2023-04-24T15:03:01;2.10;;;1.15;;
53521;SDS011;39398;48.382;9.802;2023-04-24T15:08:03;1.00;;;0.90;;
53521;SDS011;39398;48.382;9.802;2023-04-24T15:13:05;1.13;;;1.00;;
53521;SDS011;39398;48.382;9.802;2023-04-24T15:18:08;2.15;;;1.10;;
53521;SDS011;39398;48.382;9.802;2023-04-24T15:23:12;0.85;;;0.82;;
53521;SDS011;39398;48.382;9.802;2023-04-24T15:28:13;3.78;;;1.42;;
53521;SDS011;39398;48.382;9.802;2023-04-24T15:33:16;2.75;;;1.20;;
53521;SDS011;39398;48.382;9.802;2023-04-24T15:38:18;1.40;;;1.30;;
53521;SDS011;39398;48.382;9.802;2023-04-24T15:43:20;3.58;;;1.23;;
53521;SDS011;39398;48.382;9.802;2023-04-24T15:48:26;2.03;;;1.30;;
53521;SDS011;39398;48.382;9.802;2023-04-24T15:53:32;1.10;;;1.02;;
53521;SDS011;39398;48.382;9.802;2023-04-24T15:58:35;1.40;;;1.30;;
53521;SDS011;39398;48.382;9.802;2023-04-24T16:03:40;1.52;;;1.42;;
53521;SDS011;39398;48.382;9.802;2023-04-24T16:08:43;2.78;;;1.30;;
53521;SDS011;39398;48.382;9.802;2023-04-24T16:13:45;1.58;;;1.30;;
53521;SDS011;39398;48.382;9.802;2023-04-24T16:18:48;1.45;;;1.30;;
53521;SDS011;39398;48.382;9.802;2023-04-24T16:23:50;1.58;;;1.30;;
53521;SDS011;39398;48.382;9.802;2023-04-24T16:28:59;1.23;;;1.17;;
53521;SDS011;39398;48.382;9.802;2023-04-24T16:34:02;1.63;;;1.52;;
53521;SDS011;39398;48.382;9.802;2023-04-24T16:39:06;1.10;;;1.00;;
53521;SDS011;39398;48.382;9.802;2023-04-24T16:44:08;0.95;;;0.93;;
53521;SDS011;39398;48.382;9.802;2023-04-24T16:49:13;1.73;;;1.10;;
53521;SDS011;39398;48.382;9.802;2023-04-24T16:54:15;2.10;;;1.23;;
53521;SDS011;39398;48.382;9.802;2023-04-24T16:59:17;1.35;;;1.30;;
53521;SDS011;39398;48.382;9.802;2023-04-24T17:04:19;1.77;;;1.27;;
53521;SDS011;39398;48.382;9.802;2023-04-24T17:09:21;1.98;;;1.00;;
53521;SDS011;39398;48.382;9.802;2023-04-24T17:14:26;1.90;;;1.23;;
53521;SDS011;39398;48.382;9.802;2023-04-24T17:19:31;1.30;;;1.05;;
53521;SDS011;39398;48.382;9.802;2023-04-24T17:24:32;1.58;;;1.05;;
53521;SDS011;39398;48.382;9.802;2023-04-24T17:29:36;1.42;;;1.33;;
53521;SDS011;39398;48.382;9.802;2023-04-24T17:34:39;1.48;;;0.88;;
53521;SDS011;39398;48.382;9.802;2023-04-24T17:39:41;1.63;;;1.27;;
53521;SDS011;39398;48.382;9.802;2023-04-24T17:44:42;2.03;;;1.23;;
53521;SDS011;39398;48.382;9.802;2023-04-24T17:49:47;2.25;;;1.30;;
53521;SDS011;39398;48.382;9.802;2023-04-24T17:54:51;1.27;;;1.15;;
53521;SDS011;39398;48.382;9.802;2023-04-24T17:59:53;1.98;;;1.45;;
53521;SDS011;39398;48.382;9.802;2023-04-24T18:04:56;3.08;;;1.40;;
53521;SDS011;39398;48.382;9.802;2023-04-24T18:09:58;2.38;;;1.30;;
53521;SDS011;39398;48.382;9.802;2023-04-24T18:14:59;2.15;;;1.30;;
53521;SDS011;39398;48.382;9.802;2023-04-24T18:20:23;1.80;;;1.70;;
53521;SDS011;39398;48.382;9.802;2023-04-24T18:25:25;2.75;;;1.52;;
53521;SDS011;39398;48.382;9.802;2023-04-24T18:30:29;1.83;;;1.63;;
53521;SDS011;39398;48.382;9.802;2023-04-24T18:35:35;3.63;;;3.10;;
53521;SDS011;39398;48.382;9.802;2023-04-24T18:40:38;3.88;;;2.33;;
53521;SDS011;39398;48.382;9.802;2023-04-24T18:45:40;6.22;;;2.50;;
53521;SDS011;39398;48.382;9.802;2023-04-24T18:50:46;1.83;;;1.40;;
53521;SDS011;39398;48.382;9.802;2023-04-24T18:55:47;3.75;;;1.70;;
53521;SDS011;39398;48.382;9.802;2023-04-24T19:00:49;2.13;;;1.60;;
53521;SDS011;39398;48.382;9.802;2023-04-24T19:05:52;1.70;;;1.60;;
53521;SDS011;39398;48.382;9.802;2023-04-24T19:10:54;2.35;;;1.75;;
53521;SDS011;39398;48.382;9.802;2023-04-24T19:15:55;1.98;;;1.73;;
53521;SDS011;39398;48.382;9.802;2023-04-24T19:21:01;6.55;;;1.80;;
53521;SDS011;39398;48.382;9.802;2023-04-24T19:26:03;3.47;;;1.90;;
53521;SDS011;39398;48.382;9.802;2023-04-24T19:31:12;5.63;;;1.83;;
53521;SDS011;39398;48.382;9.802;2023-04-24T19:36:15;3.88;;;1.92;;
53521;SDS011;39398;48.382;9.802;2023-04-24T19:41:19;2.08;;;1.63;;
53521;SDS011;39398;48.382;9.802;2023-04-24T19:46:21;3.50;;;1.65;;
53521;SDS011;39398;48.382;9.802;2023-04-24T19:51:24;2.17;;;1.83;;
53521;SDS011;39398;48.382;9.802;2023-04-24T19:56:26;2.00;;;1.80;;
53521;SDS011;39398;48.382;9.802;2023-04-24T20:01:30;3.90;;;1.85;;
53521;SDS011;39398;48.382;9.802;2023-04-24T20:06:35;3.25;;;1.80;;
53521;SDS011;39398;48.382;9.802;2023-04-24T20:11:37;1.98;;;1.77;;
53521;SDS011;39398;48.382;9.802;2023-04-24T20:16:39;2.40;;;2.08;;
53521;SDS011;39398;48.382;9.802;2023-04-24T20:21:42;3.50;;;1.80;;
53521;SDS011;39398;48.382;9.802;2023-04-24T20:26:58;5.13;;;2.03;;
53521;SDS011;39398;48.382;9.802;2023-04-24T20:32:00;4.78;;;2.28;;
53521;SDS011;39398;48.382;9.802;2023-04-24T20:37:03;5.25;;;2.20;;
53521;SDS011;39398;48.382;9.802;2023-04-24T20:42:05;2.40;;;1.90;;
53521;SDS011;39398;48.382;9.802;2023-04-24T20:47:07;6.93;;;2.20;;
53521;SDS011;39398;48.382;9.802;2023-04-24T20:52:10;4.32;;;1.90;;
53521;SDS011;39398;48.382;9.802;2023-04-24T20:57:12;9.30;;;5.72;;
53521;SDS011;39398;48.382;9.802;2023-04-24T21:02:14;4.05;;;2.28;;
53521;SDS011;39398;48.382;9.802;2023-04-24T21:07:19;3.05;;;2.63;;
53521;SDS011;39398;48.382;9.802;2023-04-24T21:12:21;3.38;;;2.50;;
53521;SDS011;39398;48.382;9.802;2023-04-24T21:17:25;3.42;;;2.17;;
53521;SDS011;39398;48.382;9.802;2023-04-24T21:22:29;2.40;;;2.05;;
53521;SDS011;39398;48.382;9.802;2023-04-24T21:27:31;5.20;;;2.08;;
53521;SDS011;39398;48.382;9.802;2023-04-24T21:32:34;4.45;;;2.30;;
53521;SDS011;39398;48.382;9.802;2023-04-24T21:37:37;4.18;;;2.60;;
53521;SDS011;39398;48.382;9.802;2023-04-24T21:42:41;3.60;;;2.60;;
53521;SDS011;39398;48.382;9.802;2023-04-24T21:47:45;3.78;;;2.53;;
53521;SDS011;39398;48.382;9.802;2023-04-24T21:52:49;3.40;;;2.70;;
53521;SDS011;39398;48.382;9.802;2023-04-24T21:57:56;8.13;;;4.25;;
53521;SDS011;39398;48.382;9.802;2023-04-24T22:02:58;4.30;;;3.00;;
53521;SDS011;39398;48.382;9.802;2023-04-24T22:08:01;4.32;;;3.38;;
53521;SDS011;39398;48.382;9.802;2023-04-24T22:13:03;6.38;;;3.30;;
53521;SDS011;39398;48.382;9.802;2023-04-24T22:18:07;3.28;;;3.00;;
53521;SDS011;39398;48.382;9.802;2023-04-24T22:23:10;5.25;;;2.95;;
53521;SDS011;39398;48.382;9.802;2023-04-24T22:28:11;3.50;;;3.15;;
53521;SDS011;39398;48.382;9.802;2023-04-24T22:33:13;7.47;;;3.95;;
53521;SDS011;39398;48.382;9.802;2023-04-24T22:38:16;5.65;;;3.55;;
53521;SDS011;39398;48.382;9.802;2023-04-24T22:43:21;6.22;;;3.53;;
53521;SDS011;39398;48.382;9.802;2023-04-24T22:48:24;3.95;;;3.42;;
53521;SDS011;39398;48.382;9.802;2023-04-24T22:53:27;4.78;;;3.22;;
53521;SDS011;39398;48.382;9.802;2023-04-24T22:58:29;4.65;;;3.33;;
53521;SDS011;39398;48.382;9.802;2023-04-24T23:03:31;3.90;;;3.50;;
53521;SDS011;39398;48.382;9.802;2023-04-24T23:08:34;6.72;;;3.80;;
53521;SDS011;39398;48.382;9.802;2023-04-24T23:13:36;6.30;;;4.25;;
53521;SDS011;39398;48.382;9.802;2023-04-24T23:18:38;7.43;;;4.07;;
53521;SDS011;39398;48.382;9.802;2023-04-24T23:23:41;7.85;;;4.28;;
53521;SDS011;39398;48.382;9.802;2023-04-24T23:28:43;5.07;;;4.05;;
53521;SDS011;39398;48.382;9.802;2023-04-24T23:33:44;6.38;;;3.95;;
53521;SDS011;39398;48.382;9.802;2023-04-24T23:38:48;6.72;;;3.38;;
53521;SDS011;39398;48.382;9.802;2023-04-24T23:43:52;6.32;;;3.65;;
53521;SDS011;39398;48.382;9.802;2023-04-24T23:48:53;7.10;;;3.88;;
53521;SDS011;39398;48.382;9.802;2023-04-24T23:53:56;5.78;;;3.50;;
53521;SDS011;39398;48.382;9.802;2023-04-24T23:58:58;5.63;;;3.33;;
